Time;durP1;ratioP1;P1;durP2;ratioP2;P2;SDS_P1;SDS_P2;PMS_P1;PMS_P2;Temp;Humidity;BMP_temperature;BMP_pressure;BME280_temperature;BME280_humidity;BME280_pressure;Samples;Min_cycle;Max_cycle;Signal;HPM_P1;HPM_P2
2022/12/31 00:00:47;;;;;;;78.43;44.40;;;;;;;1.48;98.50;98908.88;2290917;78;20955;-80
2022/12/31 00:03:47;;;;;;;78.70;44.23;;;;;;;1.47;98.30;98906.23;2290598;78;20963;-80
2022/12/31 00:06:48;;;;;;;75.53;42.93;;;;;;;1.46;98.47;98905.34;2290388;78;20932;-81
2022/12/31 00:09:48;;;;;;;76.47;44.33;;;;;;;1.47;98.60;98909.68;2290667;78;20943;-80
2022/12/31 00:12:48;;;;;;;82.03;44.37;;;;;;;1.47;98.46;98899.80;2290505;78;20936;-81
2022/12/31 00:15:49;;;;;;;70.33;40.57;;;;;;;1.48;98.66;98897.30;2291083;78;21323;-81
2022/12/31 00:18:49;;;;;;;71.43;43.10;;;;;;;1.49;98.89;98893.03;2291257;78;20892;-80
2022/12/31 00:21:53;;;;;;;78.60;43.37;;;;;;;1.49;98.79;98899.47;2291315;78;21014;-80
2022/12/31 00:24:53;;;;;;;69.97;39.17;;;;;;;1.46;98.77;98910.48;2281084;78;21013;-79
2022/12/31 00:27:54;;;;;;;72.73;39.10;;;;;;;1.47;98.47;98904.94;2281106;78;20969;-80
2022/12/31 00:30:54;;;;;;;76.27;41.57;;;;;;;1.49;98.72;98899.06;2281513;78;20993;-79
2022/12/31 00:33:54;;;;;;;66.57;39.37;;;;;;;1.49;98.76;98893.91;2281369;78;21363;-80
2022/12/31 00:36:55;;;;;;;69.43;39.83;;;;;;;1.48;98.54;98884.44;2281471;78;20973;-80
2022/12/31 00:39:55;;;;;;;68.00;39.67;;;;;;;1.47;98.49;98882.67;2281356;78;20998;-79
2022/12/31 00:42:55;;;;;;;69.73;39.17;;;;;;;1.47;98.43;98886.93;2281397;78;20910;-79
2022/12/31 00:45:56;;;;;;;69.57;40.53;;;;;;;1.47;98.58;98894.24;2281356;78;20962;-80
2022/12/31 00:48:56;;;;;;;60.13;35.87;;;;;;;1.48;98.48;98898.58;2281233;78;20966;-80
2022/12/31 00:51:57;;;;;;;65.93;39.23;;;;;;;1.48;98.23;98895.13;2281545;78;21002;-79
2022/12/31 00:54:57;;;;;;;67.40;39.33;;;;;;;1.50;98.41;98894.80;2281174;78;20977;-80
2022/12/31 00:57:57;;;;;;;66.50;39.17;;;;;;;1.52;98.22;98890.20;2281376;78;21295;-79
2022/12/31 01:00:58;;;;;;;66.03;36.63;;;;;;;1.53;98.45;98890.68;2281162;78;20950;-79
2022/12/31 01:03:58;;;;;;;66.30;37.80;;;;;;;1.53;98.34;98895.83;2281164;78;20981;-80
2022/12/31 01:06:59;;;;;;;66.87;38.53;;;;;;;1.53;98.07;98894.94;2281345;78;20949;-80
2022/12/31 01:09:59;;;;;;;65.57;37.50;;;;;;;1.53;98.07;98894.94;2281310;78;21318;-79
2022/12/31 01:12:59;;;;;;;63.47;36.90;;;;;;;1.52;97.91;98895.34;2280233;78;20999;-80
2022/12/31 01:16:00;;;;;;;62.57;35.53;;;;;;;1.56;97.93;98896.37;2280446;78;20922;-79
2022/12/31 01:19:00;;;;;;;62.50;37.63;;;;;;;1.59;98.17;98889.69;2280789;78;21636;-81
2022/12/31 01:22:01;;;;;;;72.83;39.77;;;;;;;1.60;97.94;98884.13;2280314;78;20937;-79
2022/12/31 01:25:01;;;;;;;68.30;37.63;;;;;;;1.62;98.30;98881.23;2249135;77;21047;-80
2022/12/31 01:28:01;;;;;;;63.47;35.70;;;;;;;1.65;98.02;98885.64;2247774;79;21343;-80
2022/12/31 01:31:02;;;;;;;65.57;38.90;;;;;;;1.68;98.05;98871.63;2248015;79;20956;-80
2022/12/31 01:34:02;;;;;;;63.63;36.73;;;;;;;1.71;98.05;98866.63;2248522;79;20956;-80
2022/12/31 01:37:03;;;;;;;66.83;37.23;;;;;;;1.73;97.75;98863.31;2249145;79;21296;-80
2022/12/31 01:40:03;;;;;;;64.10;37.73;;;;;;;1.78;97.78;98870.88;2249091;79;20931;-80
2022/12/31 01:43:03;;;;;;;63.07;36.60;;;;;;;1.86;97.73;98869.54;2249236;79;20967;-80
2022/12/31 01:46:04;;;;;;;63.57;38.33;;;;;;;1.94;97.73;98869.89;2249083;79;21312;-80
2022/12/31 01:49:04;;;;;;;63.97;36.97;;;;;;;2.03;97.59;98866.86;2249116;79;20940;-80
2022/12/31 01:52:04;;;;;;;57.43;35.33;;;;;;;2.11;97.42;98859.95;2249391;79;20948;-80
2022/12/31 01:55:05;;;;;;;59.00;36.00;;;;;;;2.17;97.34;98860.23;2248953;79;21466;-80
2022/12/31 01:58:05;;;;;;;61.83;34.20;;;;;;;2.25;97.19;98865.72;2249344;79;20932;-80
2022/12/31 02:01:06;;;;;;;58.97;34.63;;;;;;;2.33;97.12;98860.91;2249199;79;20944;-80
2022/12/31 02:04:06;;;;;;;59.07;35.70;;;;;;;2.40;96.86;98866.80;2249089;79;20944;-80
2022/12/31 02:07:06;;;;;;;61.57;34.57;;;;;;;2.44;96.78;98868.30;2249337;79;21007;-81
2022/12/31 02:10:07;;;;;;;60.03;36.13;;;;;;;2.52;96.72;98866.05;2249370;79;20968;-80
2022/12/31 02:13:07;;;;;;;56.47;34.37;;;;;;;2.60;96.56;98872.45;2249271;79;20936;-80
2022/12/31 02:16:08;;;;;;;57.93;34.30;;;;;;;2.67;96.32;98869.73;2249228;79;20897;-80
2022/12/31 02:19:08;;;;;;;62.50;35.13;;;;;;;2.69;96.07;98859.97;2249370;79;20885;-80
2022/12/31 02:22:09;;;;;;;59.57;35.13;;;;;;;2.72;95.76;98846.33;2249154;79;20896;-80
2022/12/31 02:25:09;;;;;;;62.37;36.10;;;;;;;2.75;95.63;98851.61;2287170;77;21038;-81
2022/12/31 02:28:09;;;;;;;61.83;34.23;;;;;;;2.77;95.54;98844.83;2291362;78;21023;-81
2022/12/31 02:31:10;;;;;;;61.30;36.07;;;;;;;2.82;95.54;98839.45;2291272;78;21295;-81
2022/12/31 02:34:10;;;;;;;56.97;33.50;;;;;;;2.85;95.38;98827.98;2291283;78;20924;-80
2022/12/31 02:37:10;;;;;;;56.07;33.10;;;;;;;2.86;95.12;98828.45;2291504;78;20904;-80
2022/12/31 02:40:11;;;;;;;54.80;32.93;;;;;;;2.87;95.05;98828.52;2291306;78;21338;-80
2022/12/31 02:43:11;;;;;;;56.37;32.67;;;;;;;2.89;95.00;98836.31;2290602;78;20948;-80
2022/12/31 02:46:14;;;;;;;58.57;33.60;;;;;;;2.91;94.80;98843.70;2291395;78;20971;-80
2022/12/31 02:49:15;;;;;;;59.90;32.53;;;;;;;2.92;94.70;98839.02;2291131;78;20948;-81
2022/12/31 02:52:15;;;;;;;58.53;34.93;;;;;;;2.95;94.60;98836.98;2291328;78;20916;-81
2022/12/31 02:55:16;;;;;;;60.03;34.13;;;;;;;2.95;94.50;98836.56;2290753;78;21355;-82
2022/12/31 02:58:16;;;;;;;53.43;31.43;;;;;;;2.99;94.41;98844.02;2291206;78;20990;-81
2022/12/31 03:04:36;;;;;;;51.80;30.83;;;;;;;3.05;94.31;98833.55;2291367;77;20980;-81
2022/12/31 03:07:36;;;;;;;53.03;30.20;;;;;;;3.09;94.14;98828.98;2291330;78;20900;-80
2022/12/31 03:10:36;;;;;;;48.07;27.83;;;;;;;3.12;94.12;98823.95;2291204;78;20989;-81
2022/12/31 03:13:36;;;;;;;47.67;29.90;;;;;;;3.16;94.01;98812.06;2291311;78;21320;-81
2022/12/31 03:16:37;;;;;;;49.67;29.07;;;;;;;3.19;93.89;98801.45;2291092;78;20956;-81
2022/12/31 03:22:56;;;;;;;42.27;26.67;;;;;;;3.24;93.98;98809.38;2290077;77;21009;-80
2022/12/31 03:25:56;;;;;;;44.97;27.30;;;;;;;3.31;93.99;98804.94;2280734;78;21032;-81
2022/12/31 03:28:57;;;;;;;45.30;25.63;;;;;;;3.36;93.85;98810.27;2281393;78;21022;-80
2022/12/31 03:31:57;;;;;;;48.40;27.23;;;;;;;3.40;93.82;98800.13;2281334;78;21314;-80
2022/12/31 03:34:57;;;;;;;47.27;26.27;;;;;;;3.44;93.76;98799.84;2280915;78;21016;-80
2022/12/31 03:37:58;;;;;;;42.87;25.60;;;;;;;3.48;93.59;98810.38;2281386;78;20934;-80
2022/12/31 03:40:58;;;;;;;41.53;24.60;;;;;;;3.52;93.49;98815.25;2281183;78;21334;-80
2022/12/31 03:43:59;;;;;;;43.70;26.10;;;;;;;3.57;93.41;98819.30;2281459;78;20907;-81
2022/12/31 03:46:59;;;;;;;46.97;25.87;;;;;;;3.60;93.40;98816.42;2282839;78;20947;-80
2022/12/31 03:50:00;;;;;;;43.53;26.43;;;;;;;3.65;93.33;98818.77;2282564;78;21369;-80
2022/12/31 03:53:00;;;;;;;41.37;25.30;;;;;;;3.70;93.33;98830.16;2282466;78;20941;-80
2022/12/31 03:56:00;;;;;;;48.10;28.13;;;;;;;3.76;93.39;98827.81;2281732;78;21010;-79
2022/12/31 03:59:01;;;;;;;47.40;26.60;;;;;;;3.80;93.29;98836.14;2281264;78;20926;-79
2022/12/31 04:02:01;;;;;;;39.37;26.27;;;;;;;3.85;93.33;98829.86;2282042;78;21378;-80
2022/12/31 04:05:05;;;;;;;42.03;26.83;;;;;;;3.92;93.23;98834.84;2281954;78;21005;-81
2022/12/31 04:08:05;;;;;;;49.27;27.43;;;;;;;3.97;93.17;98838.06;2281653;78;20918;-80
2022/12/31 04:11:05;;;;;;;44.70;27.43;;;;;;;4.02;93.14;98850.74;2281660;78;20973;-80
2022/12/31 04:14:07;;;;;;;45.40;28.13;;;;;;;4.09;93.02;98854.44;2281225;78;20978;-81
2022/12/31 04:17:07;;;;;;;47.97;26.67;;;;;;;4.16;93.10;98846.09;2281920;78;20950;-82
2022/12/31 04:20:07;;;;;;;42.87;26.77;;;;;;;4.20;92.95;98844.09;2281866;78;21338;-82
2022/12/31 04:23:08;;;;;;;45.20;26.60;;;;;;;4.23;92.96;98848.08;2282346;77;21020;-81
2022/12/31 04:26:08;;;;;;;45.83;27.60;;;;;;;4.27;92.97;98853.82;2291381;78;20971;-82
2022/12/31 04:29:09;;;;;;;42.53;25.97;;;;;;;4.35;93.15;98858.89;2291733;78;20970;-82
2022/12/31 04:32:09;;;;;;;40.30;23.97;;;;;;;4.42;93.28;98854.83;2291413;78;21293;-82
2022/12/31 04:35:10;;;;;;;39.73;24.10;;;;;;;4.47;93.29;98854.58;2291526;78;20948;-80
2022/12/31 04:38:10;;;;;;;40.70;24.63;;;;;;;4.54;93.34;98856.97;2291940;78;20965;-81
2022/12/31 04:41:19;;;;;;;37.90;25.00;;;;;;;4.59;93.30;98867.06;2291491;78;20971;-81
2022/12/31 04:44:11;;;;;;;39.77;24.47;;;;;;;4.62;93.15;98877.51;2291458;78;20920;-80
2022/12/31 04:47:11;;;;;;;36.67;23.23;;;;;;;4.66;93.11;98876.80;2291520;78;21378;-81
2022/12/31 04:50:11;;;;;;;36.40;20.87;;;;;;;4.67;92.95;98865.63;2290952;78;20972;-81
2022/12/31 04:53:12;;;;;;;28.43;19.67;;;;;;;4.62;92.49;98865.87;2290914;78;21379;-81
2022/12/31 04:56:12;;;;;;;33.80;21.37;;;;;;;4.57;92.04;98877.75;2291201;78;21019;-81
2022/12/31 04:59:13;;;;;;;34.07;20.40;;;;;;;4.50;91.74;98878.36;2291891;78;20952;-81
2022/12/31 05:02:13;;;;;;;34.97;20.53;;;;;;;4.42;91.57;98877.67;2291617;78;20947;-81
2022/12/31 05:05:14;;;;;;;34.13;21.60;;;;;;;4.33;91.26;98885.47;2291755;78;20924;-80
2022/12/31 05:08:14;;;;;;;33.37;22.00;;;;;;;4.26;91.54;98888.23;2291267;78;20959;-81
2022/12/31 05:11:15;;;;;;;32.70;20.83;;;;;;;4.32;92.76;98892.75;2291477;78;20960;-81
2022/12/31 05:14:16;;;;;;;32.90;20.70;;;;;;;4.44;93.66;98888.95;2291288;78;20960;-81
2022/12/31 05:17:16;;;;;;;30.97;19.67;;;;;;;4.57;94.00;98882.92;2290987;78;20959;-81
2022/12/31 05:20:16;;;;;;;28.07;18.17;;;;;;;4.85;97.44;98882.20;2290756;78;20948;-81
2022/12/31 05:23:16;;;;;;;26.23;17.57;;;;;;;5.18;97.54;98876.00;2290045;78;20917;-80
2022/12/31 05:26:17;;;;;;;26.27;16.33;;;;;;;5.43;97.07;98872.13;2280742;78;20969;-81
2022/12/31 05:29:17;;;;;;;28.77;16.77;;;;;;;5.63;97.09;98870.17;2280286;78;20946;-81
2022/12/31 05:32:18;;;;;;;28.57;17.37;;;;;;;5.82;96.62;98868.62;2280425;78;21006;-81
2022/12/31 05:35:18;;;;;;;24.43;16.17;;;;;;;5.93;96.14;98860.79;2280650;78;21360;-79
2022/12/31 05:38:18;;;;;;;24.53;15.83;;;;;;;6.04;95.70;98865.00;2280850;78;20898;-83
2022/12/31 05:41:19;;;;;;;25.87;16.70;;;;;;;6.16;95.62;98865.39;2281312;78;20930;-84
2022/12/31 05:44:19;;;;;;;22.07;15.90;;;;;;;6.27;95.32;98865.29;2281504;78;21345;-82
2022/12/31 05:47:20;;;;;;;23.90;16.13;;;;;;;6.36;94.99;98846.11;2281124;78;20949;-83
2022/12/31 05:50:20;;;;;;;22.10;14.90;;;;;;;6.43;94.69;98861.84;2281633;78;20993;-83
2022/12/31 05:53:26;;;;;;;19.67;14.30;;;;;;;6.47;94.68;98855.48;2281817;78;21357;-82
2022/12/31 05:56:27;;;;;;;21.13;13.50;;;;;;;6.53;94.55;98862.56;2281926;77;20969;-83
2022/12/31 05:59:27;;;;;;;21.37;14.43;;;;;;;6.60;94.79;98854.11;2281730;78;21369;-82
2022/12/31 06:02:28;;;;;;;22.20;14.17;;;;;;;6.66;94.40;98864.23;2281375;78;20969;-83
2022/12/31 06:05:28;;;;;;;21.23;13.80;;;;;;;6.71;94.50;98869.13;2281104;78;20954;-84
2022/12/31 06:08:28;;;;;;;16.47;12.80;;;;;;;6.78;94.54;98861.52;2281566;78;20981;-81
2022/12/31 06:11:29;;;;;;;18.43;12.73;;;;;;;6.83;94.41;98863.39;2280776;78;20979;-82
2022/12/31 06:14:29;;;;;;;19.20;12.50;;;;;;;6.88;94.23;98865.69;2280473;78;21009;-81
2022/12/31 06:17:31;;;;;;;16.03;11.83;;;;;;;6.92;94.12;98864.06;2280602;78;20934;-81
2022/12/31 06:20:30;;;;;;;16.93;12.23;;;;;;;6.96;94.16;98856.43;2280671;78;20969;-82
2022/12/31 06:23:30;;;;;;;17.20;11.27;;;;;;;7.01;94.02;98853.53;2279321;78;20930;-82
2022/12/31 06:26:31;;;;;;;16.50;10.70;;;;;;;7.05;94.06;98853.61;2248254;79;20968;-81
2022/12/31 06:29:31;;;;;;;15.30;11.13;;;;;;;7.07;93.88;98854.11;2248676;79;20975;-82
2022/12/31 06:32:32;;;;;;;14.03;10.47;;;;;;;7.10;94.00;98866.29;2248908;79;21719;-81
2022/12/31 06:35:32;;;;;;;15.13;10.47;;;;;;;7.11;94.14;98879.31;2249361;79;21014;-82
2022/12/31 06:38:35;;;;;;;14.93;10.23;;;;;;;7.16;94.24;98879.42;2249626;79;21344;-82
2022/12/31 06:41:35;;;;;;;14.23;10.87;;;;;;;7.18;94.06;98890.73;2249177;79;21360;-82
2022/12/31 06:44:37;;;;;;;15.00;10.97;;;;;;;7.21;94.18;98894.28;2249606;79;21020;-82
2022/12/31 06:47:38;;;;;;;15.97;10.70;;;;;;;7.28;94.05;98896.61;2249301;79;20976;-81
2022/12/31 06:50:39;;;;;;;12.70;9.70;;;;;;;7.32;93.92;98895.44;2249387;79;21360;-83
2022/12/31 06:53:39;;;;;;;11.77;9.57;;;;;;;7.34;93.87;98896.34;2249056;78;20959;-82
2022/12/31 06:56:39;;;;;;;13.50;10.43;;;;;;;7.38;93.89;98901.63;2249113;78;21046;-81
2022/12/31 06:59:39;;;;;;;12.77;9.60;;;;;;;7.41;93.79;98887.00;2248789;79;20956;-82
2022/12/31 07:02:40;;;;;;;12.93;9.93;;;;;;;7.46;93.86;98900.09;2249352;78;20940;-83
2022/12/31 07:05:40;;;;;;;12.00;9.63;;;;;;;7.53;93.93;98900.70;2249369;79;21307;-82
2022/12/31 07:08:41;;;;;;;10.30;8.87;;;;;;;7.58;93.72;98896.50;2248757;78;20947;-81
2022/12/31 07:11:41;;;;;;;11.63;9.03;;;;;;;7.63;93.56;98887.98;2248906;79;21023;-82
2022/12/31 07:14:41;;;;;;;12.27;9.47;;;;;;;7.70;93.30;98895.92;2248596;78;21229;-82
2022/12/31 07:17:42;;;;;;;13.83;9.20;;;;;;;7.73;93.08;98890.38;2248334;78;20948;-81
2022/12/31 07:20:42;;;;;;;12.03;8.23;;;;;;;7.77;93.09;98893.92;2248346;78;20956;-81
2022/12/31 07:23:43;;;;;;;11.83;8.87;;;;;;;7.81;93.05;98900.98;2250852;77;21000;-82
2022/12/31 07:26:43;;;;;;;12.13;9.27;;;;;;;7.83;92.93;98915.77;2291335;78;21015;-82
2022/12/31 07:29:43;;;;;;;11.87;9.43;;;;;;;7.87;92.87;98907.20;2291360;78;21028;-80
2022/12/31 07:32:44;;;;;;;11.80;8.97;;;;;;;7.90;92.72;98911.17;2291041;78;21308;-81
2022/12/31 07:39:02;;;;;;;12.70;10.27;;;;;;;8.03;92.46;98899.33;2239189;79;22348;-81
2022/12/31 07:42:02;;;;;;;13.03;9.10;;;;;;;8.01;92.49;98904.04;2190410;81;20952;-80
2022/12/31 07:45:09;;;;;;;10.10;8.50;;;;;;;8.05;92.41;98912.36;2190641;81;21024;-79
2022/12/31 07:48:09;;;;;;;10.23;8.50;;;;;;;8.11;92.27;98908.18;2190615;81;21011;-79
2022/12/31 07:51:12;;;;;;;10.83;8.83;;;;;;;8.19;92.04;98911.83;2190374;81;20990;-79
2022/12/31 07:54:12;;;;;;;10.77;8.93;;;;;;;8.25;91.82;98901.98;2190365;81;20988;-81
2022/12/31 07:57:15;;;;;;;11.53;8.77;;;;;;;8.30;91.71;98913.37;2190267;81;20975;-80
2022/12/31 08:00:15;;;;;;;11.83;8.67;;;;;;;8.36;91.70;98913.53;2190404;81;20967;-79
2022/12/31 08:03:18;;;;;;;11.50;8.43;;;;;;;8.43;91.40;98914.55;2190297;81;21008;-80
2022/12/31 08:06:18;;;;;;;11.57;8.03;;;;;;;8.48;91.16;98919.00;2190298;81;20952;-79
2022/12/31 08:09:19;;;;;;;10.20;7.90;;;;;;;8.51;91.12;98918.19;2190466;81;20991;-80
2022/12/31 08:12:19;;;;;;;10.47;8.97;;;;;;;8.56;91.19;98912.66;2189969;81;20992;-79
2022/12/31 08:15:20;;;;;;;10.93;8.43;;;;;;;8.61;91.00;98914.92;2190510;81;20921;-80
2022/12/31 08:18:20;;;;;;;10.27;8.40;;;;;;;8.65;90.77;98906.34;2189541;81;20996;-79
2022/12/31 08:21:21;;;;;;;9.90;7.97;;;;;;;8.71;90.79;98906.49;2189599;81;21659;-80
2022/12/31 08:24:21;;;;;;;11.93;8.90;;;;;;;8.76;90.35;98907.47;2189542;81;21000;-79
2022/12/31 08:27:22;;;;;;;13.13;8.70;;;;;;;8.77;90.51;98907.04;2189394;81;20976;-79
2022/12/31 08:30:22;;;;;;;10.87;8.13;;;;;;;8.80;90.25;98909.28;2189423;81;21320;-80
2022/12/31 08:33:22;;;;;;;11.47;8.20;;;;;;;8.85;90.26;98924.56;2189429;81;20936;-82
2022/12/31 08:36:23;;;;;;;11.17;8.27;;;;;;;8.89;90.18;98921.17;2188731;81;20976;-82
2022/12/31 08:39:23;;;;;;;9.17;7.43;;;;;;;8.95;90.20;98921.72;2173717;81;21361;-83
2022/12/31 08:42:24;;;;;;;8.73;7.27;;;;;;;9.05;89.86;98944.91;2172986;82;20968;-82
2022/12/31 08:45:24;;;;;;;11.13;8.00;;;;;;;9.12;89.70;98955.47;2173134;81;20972;-82
2022/12/31 08:48:25;;;;;;;12.53;8.77;;;;;;;9.22;89.76;98964.33;2173431;81;21352;-82
2022/12/31 08:51:27;;;;;;;12.70;8.87;;;;;;;9.32;89.44;98974.08;2173181;81;20949;-83
2022/12/31 08:54:27;;;;;;;11.10;8.63;;;;;;;9.38;89.00;98963.77;2173091;82;21316;-83
2022/12/31 08:57:28;;;;;;;10.63;7.90;;;;;;;9.46;88.62;98971.30;2173264;82;20980;-81
2022/12/31 09:00:28;;;;;;;13.77;8.60;;;;;;;9.54;88.14;98972.34;2173487;81;20921;-80
2022/12/31 09:03:28;;;;;;;10.90;7.87;;;;;;;9.65;87.79;98956.90;2173348;81;21294;-81
2022/12/31 09:06:29;;;;;;;10.40;8.10;;;;;;;9.75;87.75;98944.47;2173226;81;20988;-80
2022/12/31 09:09:29;;;;;;;9.27;6.90;;;;;;;9.85;87.42;98933.77;2173615;82;21045;-80
2022/12/31 09:12:30;;;;;;;8.73;6.63;;;;;;;9.92;87.31;98926.92;2173267;81;21289;-79
2022/12/31 09:15:30;;;;;;;10.90;7.67;;;;;;;9.95;86.64;98936.97;2173110;81;20948;-80
2022/12/31 09:18:30;;;;;;;10.53;7.43;;;;;;;9.99;86.76;98938.77;2172973;81;21052;-80
2022/12/31 09:21:31;;;;;;;10.20;7.93;;;;;;;10.00;86.24;98948.35;2173748;81;21333;-81
2022/12/31 09:24:31;;;;;;;11.27;8.23;;;;;;;10.01;85.99;98951.41;2173143;81;20941;-81
2022/12/31 09:27:32;;;;;;;11.53;8.73;;;;;;;10.07;86.18;98954.11;2173259;81;21345;-80
2022/12/31 09:30:34;;;;;;;8.80;7.00;;;;;;;10.15;86.24;98951.63;2173234;81;21376;-80
2022/12/31 09:33:35;;;;;;;9.57;7.40;;;;;;;10.19;85.54;98936.04;2173283;82;20913;-81
2022/12/31 09:36:35;;;;;;;9.73;7.13;;;;;;;10.26;85.93;98933.55;2173624;81;20984;-80
2022/12/31 09:39:35;;;;;;;10.80;7.10;;;;;;;10.34;85.73;98937.15;2189929;81;21016;-80
2022/12/31 09:42:36;;;;;;;9.43;6.73;;;;;;;10.42;85.06;98927.30;2189609;81;20956;-79
2022/12/31 09:45:36;;;;;;;9.20;6.73;;;;;;;10.51;84.67;98920.02;2188727;81;21423;-80
2022/12/31 09:48:37;;;;;;;8.93;7.07;;;;;;;10.61;84.55;98927.11;2189223;81;21031;-79
2022/12/31 09:51:39;;;;;;;7.50;6.10;;;;;;;10.66;84.29;98918.91;2189861;81;20986;-81
2022/12/31 09:54:40;;;;;;;10.77;7.50;;;;;;;10.69;84.26;98917.64;2189731;81;20983;-81
2022/12/31 09:57:40;;;;;;;9.97;6.97;;;;;;;10.71;84.23;98915.05;2190177;81;21003;-82
2022/12/31 10:00:40;;;;;;;9.63;5.97;;;;;;;10.73;83.90;98916.83;2189268;81;21352;-82
2022/12/31 10:03:41;;;;;;;10.87;6.30;;;;;;;10.78;84.05;98916.88;2189657;81;20991;-82
2022/12/31 10:06:41;;;;;;;9.40;5.90;;;;;;;10.83;83.86;98917.81;2189869;81;20964;-81
2022/12/31 10:09:42;;;;;;;9.90;6.33;;;;;;;10.89;83.62;98913.09;2189873;81;21051;-80
2022/12/31 10:12:43;;;;;;;11.07;6.17;;;;;;;10.98;83.90;98907.54;2189207;81;20936;-81
2022/12/31 10:15:43;;;;;;;11.23;6.70;;;;;;;11.10;83.59;98912.90;2189061;81;20956;-80
2022/12/31 10:18:43;;;;;;;7.60;5.57;;;;;;;11.21;83.09;98906.91;2188931;81;21414;-79
2022/12/31 10:21:44;;;;;;;8.70;5.80;;;;;;;11.30;83.19;98904.42;2189373;81;21059;-81
2022/12/31 10:24:46;;;;;;;7.70;5.87;;;;;;;11.34;82.28;98901.85;2189744;81;20999;-80
2022/12/31 10:27:47;;;;;;;6.43;5.73;;;;;;;11.41;82.05;98898.44;2189856;81;20952;-81
2022/12/31 10:30:47;;;;;;;7.83;5.77;;;;;;;11.50;81.40;98895.03;2189901;81;21024;-80
2022/12/31 10:33:47;;;;;;;7.40;5.97;;;;;;;11.56;81.96;98898.13;2189063;81;20943;-79
2022/12/31 10:36:48;;;;;;;7.58;6.08;;;;;;;11.56;81.55;98885.05;2188807;81;20971;-80
2022/12/31 10:39:48;;;;;;;9.13;6.83;;;;;;;11.53;80.79;98894.18;2172264;81;21353;-80
2022/12/31 10:42:49;;;;;;;7.58;6.17;;;;;;;11.49;81.26;98894.16;2172196;81;20917;-80
2022/12/31 10:45:49;;;;;;;8.43;6.30;;;;;;;11.47;81.45;98888.03;2171798;82;20894;-80
2022/12/31 10:48:49;;;;;;;8.87;6.43;;;;;;;11.46;81.39;98896.73;2171572;81;21297;-80
2022/12/31 10:51:52;;;;;;;13.18;7.40;;;;;;;11.46;81.82;98895.44;2171927;81;20940;-79
2022/12/31 10:54:50;;;;;;;8.70;6.67;;;;;;;11.51;82.05;98889.38;2172144;81;21004;-79
2022/12/31 10:57:51;;;;;;;10.78;7.40;;;;;;;11.52;81.72;98879.36;2172632;81;20988;-80
2022/12/31 11:00:51;;;;;;;8.20;6.35;;;;;;;11.57;81.73;98875.05;2172939;81;20945;-80
2022/12/31 11:03:54;;;;;;;10.55;6.05;;;;;;;11.62;81.48;98874.22;2173009;81;21045;-80
2022/12/31 11:06:54;;;;;;;8.33;5.80;;;;;;;11.66;81.64;98885.14;2172450;82;21317;-80
2022/12/31 11:09:55;;;;;;;10.00;6.10;;;;;;;11.72;81.69;98885.63;2172829;81;20985;-80
2022/12/31 11:12:55;;;;;;;8.15;6.25;;;;;;;11.74;81.38;98873.00;2172589;81;20944;-80
2022/12/31 11:15:55;;;;;;;9.67;5.90;;;;;;;11.74;81.28;98873.44;2172027;82;20997;-80
2022/12/31 11:18:56;;;;;;;8.55;6.33;;;;;;;11.79;81.63;98884.84;2172382;81;21000;-80
2022/12/31 11:21:56;;;;;;;8.83;6.35;;;;;;;11.82;81.24;98879.63;2172696;81;21001;-81
2022/12/31 11:24:57;;;;;;;8.30;5.50;;;;;;;11.85;81.07;98874.42;2171890;81;21003;-81
2022/12/31 11:27:57;;;;;;;9.05;6.22;;;;;;;11.87;81.27;98874.00;2171576;81;20960;-81
2022/12/31 11:30:57;;;;;;;8.95;6.58;;;;;;;11.93;81.04;98871.43;2171475;81;20977;-80
2022/12/31 11:33:58;;;;;;;7.50;6.17;;;;;;;11.98;81.14;98869.72;2171331;81;20937;-79
2022/12/31 11:37:01;;;;;;;9.33;6.05;;;;;;;12.03;81.28;98877.17;2171612;81;20957;-80
2022/12/31 11:40:02;;;;;;;6.40;5.30;;;;;;;12.04;81.08;98880.66;2172416;81;21000;-80
2022/12/31 11:43:02;;;;;;;6.25;5.58;;;;;;;12.01;80.38;98864.51;2172784;81;21372;-81
2022/12/31 11:46:03;;;;;;;7.50;5.20;;;;;;;11.94;80.71;98856.18;2172720;81;20968;-81
2022/12/31 11:49:03;;;;;;;8.30;5.30;;;;;;;11.93;81.19;98847.89;2172619;81;20960;-80
2022/12/31 11:52:03;;;;;;;8.28;6.03;;;;;;;11.98;81.06;98849.23;2172152;81;21368;-81
2022/12/31 11:55:04;;;;;;;7.37;5.75;;;;;;;12.01;81.32;98858.41;2172269;81;21001;-81
2022/12/31 11:58:04;;;;;;;8.70;5.85;;;;;;;12.06;81.21;98867.16;2172494;81;21471;-80
2022/12/31 12:01:04;;;;;;;8.30;5.60;;;;;;;12.09;80.94;98868.48;2173053;81;21301;-81
2022/12/31 12:04:08;;;;;;;7.25;5.97;;;;;;;12.10;80.85;98867.62;2173013;82;20949;-80
2022/12/31 12:07:09;;;;;;;6.97;5.65;;;;;;;12.10;81.03;98851.48;2173291;81;20906;-81
2022/12/31 12:10:09;;;;;;;10.65;6.08;;;;;;;12.12;81.12;98854.11;2173029;81;21321;-81
2022/12/31 12:13:10;;;;;;;7.28;5.87;;;;;;;12.07;81.05;98844.05;2172943;81;20949;-80
2022/12/31 12:16:10;;;;;;;11.35;7.05;;;;;;;12.04;81.24;98843.59;2173361;82;20980;-80
2022/12/31 12:19:10;;;;;;;10.05;6.60;;;;;;;12.07;81.46;98834.46;2173066;81;20981;-80
2022/12/31 12:22:11;;;;;;;10.53;6.60;;;;;;;12.09;81.33;98836.65;2172924;81;21350;-81
2022/12/31 12:25:11;;;;;;;8.25;6.12;;;;;;;12.12;81.42;98835.36;2173007;81;20965;-80
2022/12/31 12:28:12;;;;;;;9.00;5.53;;;;;;;12.18;81.52;98839.78;2173353;81;20961;-80
2022/12/31 12:31:12;;;;;;;7.67;6.25;;;;;;;12.18;80.97;98834.98;2173193;81;20995;-80
2022/12/31 12:34:12;;;;;;;7.62;6.17;;;;;;;12.18;81.34;98846.33;2173321;81;21028;-80
2022/12/31 12:37:13;;;;;;;7.22;5.15;;;;;;;12.22;81.51;98842.86;2173337;81;20968;-80
2022/12/31 12:40:16;;;;;;;7.60;5.12;;;;;;;12.18;81.26;98835.86;2173365;82;20984;-80
2022/12/31 12:43:16;;;;;;;7.37;4.95;;;;;;;12.15;81.48;98838.46;2173182;81;21364;-81
2022/12/31 12:46:17;;;;;;;6.12;4.92;;;;;;;12.11;81.61;98827.50;2173287;81;20989;-81
2022/12/31 12:49:17;;;;;;;6.67;4.65;;;;;;;12.06;81.64;98825.30;2173427;81;20988;-80
2022/12/31 12:52:20;;;;;;;5.58;4.53;;;;;;;12.00;81.80;98828.75;2173473;81;20925;-80
2022/12/31 12:55:21;;;;;;;7.20;4.97;;;;;;;11.98;82.06;98821.33;2173342;81;20956;-81
2022/12/31 12:58:21;;;;;;;5.70;4.47;;;;;;;11.97;82.23;98827.42;2173221;82;21088;-81
2022/12/31 13:01:21;;;;;;;7.90;5.40;;;;;;;11.99;82.28;98823.08;2173251;81;20922;-81
2022/12/31 13:04:22;;;;;;;6.58;5.03;;;;;;;12.00;82.35;98820.91;2173343;81;20985;-81
2022/12/31 13:07:22;;;;;;;7.55;5.20;;;;;;;11.99;82.43;98829.61;2173364;81;21292;-80
2022/12/31 13:10:23;;;;;;;6.90;5.20;;;;;;;12.00;82.46;98819.59;2173338;81;20956;-81
2022/12/31 13:13:23;;;;;;;8.08;4.92;;;;;;;12.01;82.56;98820.03;2173023;82;20973;-82
2022/12/31 13:16:23;;;;;;;5.85;5.10;;;;;;;12.03;82.44;98824.84;2173168;81;20945;-80
2022/12/31 13:19:24;;;;;;;7.05;4.87;;;;;;;12.04;82.56;98825.28;2173311;81;20989;-80
2022/12/31 13:22:24;;;;;;;7.17;4.80;;;;;;;12.07;82.60;98827.05;2173120;81;21008;-79
2022/12/31 13:25:25;;;;;;;6.77;4.83;;;;;;;12.08;82.59;98821.81;2173502;81;21000;-80
2022/12/31 13:28:25;;;;;;;6.17;4.77;;;;;;;12.11;82.50;98825.76;2173160;81;20981;-80
2022/12/31 13:31:25;;;;;;;5.83;4.37;;;;;;;12.12;82.67;98829.25;2173245;82;20969;-80
2022/12/31 13:34:26;;;;;;;6.47;4.87;;;;;;;12.12;82.57;98835.36;2173280;81;21313;-81
2022/12/31 13:37:26;;;;;;;7.80;5.00;;;;;;;12.12;82.48;98836.67;2173159;81;21011;-80
2022/12/31 13:40:27;;;;;;;7.30;4.92;;;;;;;12.10;82.47;98846.25;2173211;81;20953;-81
2022/12/31 13:43:27;;;;;;;5.60;4.70;;;;;;;12.10;82.62;98854.53;2173059;82;20957;-81
2022/12/31 13:46:27;;;;;;;6.08;5.33;;;;;;;12.11;82.49;98837.53;2173361;81;21037;-80
2022/12/31 13:49:28;;;;;;;7.30;5.10;;;;;;;12.12;82.36;98843.64;2173063;81;21303;-81
2022/12/31 13:52:28;;;;;;;6.17;5.10;;;;;;;12.09;82.52;98843.19;2173298;81;20984;-80
2022/12/31 13:55:29;;;;;;;6.33;4.70;;;;;;;12.08;82.77;98857.14;2173211;81;20996;-80
2022/12/31 13:58:30;;;;;;;6.10;4.65;;;;;;;12.04;82.86;98855.38;2173083;81;21039;-81
2022/12/31 14:01:30;;;;;;;5.75;5.00;;;;;;;12.05;82.91;98851.89;2173065;81;20922;-80
2022/12/31 14:04:30;;;;;;;6.37;4.67;;;;;;;12.05;83.03;98848.40;2173382;81;20982;-80
2022/12/31 14:07:30;;;;;;;9.60;5.70;;;;;;;12.04;82.92;98854.06;2173192;81;20921;-80
2022/12/31 14:10:31;;;;;;;6.65;5.47;;;;;;;12.05;82.98;98861.05;2172534;81;21049;-79
2022/12/31 14:13:31;;;;;;;8.15;5.35;;;;;;;12.05;82.98;98852.32;2173177;81;20984;-79